Time;durP1;ratioP1;P1;durP2;ratioP2;P2;SDS_P1;SDS_P2;PMS_P1;PMS_P2;Temp;Humidity;BMP_temperature;BMP_pressure;BME280_temperature;BME280_humidity;BME280_pressure;Samples;Min_cycle;Max_cycle;Signal;HPM_P1;HPM_P2
2022/04/28 00:01:44;;;;;;;5.53;4.77;;;9.40;99.90;;;;;;10387390;28;20307;-68
2022/04/28 00:06:45;;;;;;;5.40;4.70;;;9.30;99.90;;;;;;10392513;28;20222;-69
2022/04/28 00:11:45;;;;;;;5.80;4.73;;;9.30;99.90;;;;;;10395810;28;20265;-69
2022/04/28 00:16:46;;;;;;;7.10;5.17;;;9.20;99.90;;;;;;10402365;28;20215;-69
2022/04/28 00:21:47;;;;;;;10.53;6.57;;;9.10;99.90;;;;;;10387442;28;20259;-69
2022/04/28 00:26:47;;;;;;;5.80;4.70;;;9.00;99.90;;;;;;10395367;28;20232;-69
2022/04/28 00:31:48;;;;;;;5.23;4.70;;;8.90;99.90;;;;;;10398563;28;20216;-69
2022/04/28 00:36:49;;;;;;;6.10;4.70;;;8.80;99.90;;;;;;10387259;28;20315;-69
2022/04/28 00:41:49;;;;;;;6.97;5.20;;;8.70;99.90;;;;;;10391762;28;20223;-69
2022/04/28 00:46:50;;;;;;;6.23;5.13;;;8.60;99.90;;;;;;10386423;28;20623;-68
2022/04/28 00:51:55;;;;;;;5.47;4.97;;;8.60;99.90;;;;;;10392017;28;20224;-70
2022/04/28 00:56:58;;;;;;;6.50;5.80;;;8.50;99.90;;;;;;10385749;28;20224;-69
2022/04/28 01:01:58;;;;;;;7.47;5.77;;;8.50;99.90;;;;;;10391238;28;20223;-69
2022/04/28 01:06:59;;;;;;;8.83;7.07;;;8.40;99.90;;;;;;10400503;28;20216;-69
2022/04/28 01:12:00;;;;;;;8.37;6.87;;;8.40;99.90;;;;;;10384544;28;20299;-69
2022/04/28 01:17:02;;;;;;;12.30;6.90;;;8.40;99.90;;;;;;10392330;28;20456;-68
2022/04/28 01:22:04;;;;;;;12.53;7.30;;;8.50;99.90;;;;;;10383087;28;20742;-69
2022/04/28 01:27:07;;;;;;;9.83;7.43;;;8.50;99.90;;;;;;10390043;28;20230;-69
2022/04/28 01:32:08;;;;;;;8.37;7.20;;;8.40;99.90;;;;;;10384507;28;20769;-69
2022/04/28 01:37:08;;;;;;;9.07;7.10;;;8.50;99.90;;;;;;10398772;28;20234;-68
2022/04/28 01:42:09;;;;;;;8.67;7.80;;;8.40;99.90;;;;;;10392070;28;20242;-69
2022/04/28 01:47:13;;;;;;;10.33;7.07;;;8.40;99.90;;;;;;10398713;28;20223;-69
2022/04/28 01:57:33;;;;;;;7.53;6.77;;;8.50;99.90;;;;;;10386684;28;20595;-70
2022/04/28 02:02:34;;;;;;;8.53;6.90;;;8.40;99.90;;;;;;10387352;28;20220;-69
2022/04/28 02:07:35;;;;;;;8.57;7.67;;;8.40;99.90;;;;;;10386136;28;20224;-68
2022/04/28 02:12:37;;;;;;;7.70;6.90;;;8.40;99.90;;;;;;10387757;28;20243;-68
2022/04/28 02:17:39;;;;;;;8.33;6.83;;;8.30;99.90;;;;;;10394089;28;20224;-69
2022/04/28 02:22:39;;;;;;;9.30;7.00;;;8.20;99.90;;;;;;10391243;28;20862;-70
2022/04/28 02:27:40;;;;;;;8.47;7.20;;;8.10;99.90;;;;;;10395004;28;20313;-69
2022/04/28 02:38:00;;;;;;;7.90;6.67;;;8.10;99.90;;;;;;10375391;28;20217;-69
2022/04/28 02:43:01;;;;;;;8.80;7.90;;;8.00;99.90;;;;;;10382151;28;20229;-68
2022/04/28 02:48:02;;;;;;;9.33;7.33;;;7.90;99.90;;;;;;10390226;28;20671;-70
2022/04/28 02:53:02;;;;;;;8.00;7.03;;;7.90;99.90;;;;;;10384804;28;20224;-70
2022/04/28 02:58:03;;;;;;;10.17;7.67;;;7.90;99.90;;;;;;10397631;28;20227;-68
2022/04/28 03:03:04;;;;;;;8.93;7.90;;;8.00;99.90;;;;;;10402313;28;20220;-68
2022/04/28 03:13:25;;;;;;;8.10;7.30;;;8.00;99.90;;;;;;10397066;28;20224;-68
2022/04/28 03:18:26;;;;;;;9.23;7.70;;;7.90;99.90;;;;;;10392809;28;20221;-69
2022/04/28 03:23:26;;;;;;;9.77;7.83;;;7.90;99.90;;;;;;10396525;28;20731;-68
2022/04/28 03:28:27;;;;;;;11.97;7.77;;;7.80;99.90;;;;;;10393552;28;20231;-69
2022/04/28 03:33:27;;;;;;;10.50;7.67;;;7.80;99.90;;;;;;10397453;28;20232;-68
2022/04/28 03:38:28;;;;;;;8.97;7.97;;;7.70;99.90;;;;;;10396844;28;20785;-67
2022/04/28 03:43:29;;;;;;;11.43;8.30;;;7.70;99.90;;;;;;10392547;28;20221;-68
2022/04/28 03:48:30;;;;;;;9.43;8.17;;;7.70;99.90;;;;;;10391380;28;20293;-68
2022/04/28 03:53:30;;;;;;;10.13;8.83;;;7.60;99.90;;;;;;10395226;28;20230;-69
2022/04/28 03:58:34;;;;;;;10.23;8.70;;;7.60;99.90;;;;;;10391479;28;20569;-69
2022/04/28 04:03:35;;;;;;;10.90;8.57;;;7.60;99.90;;;;;;10386631;28;20228;-68
2022/04/28 04:08:35;;;;;;;11.83;8.93;;;7.50;99.90;;;;;;10388944;28;20216;-68
2022/04/28 04:13:37;;;;;;;12.73;9.90;;;7.50;99.90;;;;;;10393718;28;20224;-69
2022/04/28 04:18:37;;;;;;;16.57;9.50;;;7.50;99.90;;;;;;10393222;28;20230;-68
2022/04/28 04:23:38;;;;;;;12.93;8.57;;;7.50;99.90;;;;;;10401615;28;20688;-68
2022/04/28 04:28:38;;;;;;;17.97;9.77;;;7.50;99.90;;;;;;10387078;28;20644;-68
2022/04/28 04:33:39;;;;;;;16.90;9.97;;;7.50;99.90;;;;;;10390592;28;20312;-70
2022/04/28 04:38:40;;;;;;;16.10;11.27;;;7.50;99.90;;;;;;10393179;28;20248;-67
2022/04/28 04:43:40;;;;;;;19.17;11.10;;;7.50;99.90;;;;;;10385981;28;20707;-68
2022/04/28 04:48:41;;;;;;;15.90;10.63;;;7.60;99.90;;;;;;10372023;28;20251;-67
2022/04/28 04:53:41;;;;;;;14.77;10.57;;;7.70;99.90;;;;;;10386503;28;20279;-68
2022/04/28 04:58:42;;;;;;;11.47;9.57;;;7.70;99.90;;;;;;10388513;28;20564;-68
2022/04/28 05:03:45;;;;;;;17.03;10.57;;;7.80;99.90;;;;;;10386282;28;20225;-68
2022/04/28 05:08:46;;;;;;;15.77;9.70;;;8.00;99.90;;;;;;10392192;28;20313;-68
2022/04/28 05:13:47;;;;;;;14.43;9.33;;;8.10;99.90;;;;;;10385908;28;20278;-69
2022/04/28 05:18:49;;;;;;;15.67;9.90;;;8.30;99.90;;;;;;10398966;28;20365;-68
2022/04/28 05:23:55;;;;;;;14.23;8.77;;;8.50;99.90;;;;;;10393201;28;20269;-68
2022/04/28 05:28:55;;;;;;;14.37;8.53;;;8.90;99.90;;;;;;10385533;28;20723;-69
2022/04/28 05:33:56;;;;;;;11.37;7.70;;;9.00;99.90;;;;;;10395454;28;20223;-68
2022/04/28 05:38:58;;;;;;;14.13;7.20;;;9.20;99.90;;;;;;10390638;28;20353;-68
2022/04/28 05:49:17;;;;;;;8.00;7.20;;;9.40;99.90;;;;;;10385216;28;20538;-68
2022/04/28 05:54:27;;;;;;;9.73;7.13;;;9.60;99.90;;;;;;10387728;28;20267;-69
2022/04/28 05:59:27;;;;;;;10.10;7.87;;;10.00;99.90;;;;;;10386289;28;20224;-69
2022/04/28 06:04:28;;;;;;;9.03;6.97;;;10.10;99.90;;;;;;10386251;28;20228;-67
2022/04/28 06:09:29;;;;;;;11.33;6.03;;;11.20;99.90;;;;;;10384963;28;20215;-69
2022/04/28 06:14:29;;;;;;;6.27;5.37;;;14.20;99.90;;;;;;10386186;28;20680;-68
2022/04/28 06:19:30;;;;;;;9.43;5.27;;;16.40;99.90;;;;;;10404981;28;20210;-69
2022/04/28 06:24:30;;;;;;;15.50;5.47;;;17.90;99.90;;;;;;10391999;28;20274;-68
2022/04/28 06:29:31;;;;;;;11.33;6.17;;;18.80;94.00;;;;;;10390351;28;20311;-69
2022/04/28 06:34:31;;;;;;;9.80;5.67;;;18.90;91.40;;;;;;10389073;28;20251;-69
2022/04/28 06:39:32;;;;;;;9.60;6.10;;;19.10;86.40;;;;;;10394238;28;20699;-68
2022/04/28 06:44:36;;;;;;;8.23;5.93;;;19.00;86.40;;;;;;10392363;28;20935;-69
2022/04/28 06:49:37;;;;;;;12.43;6.40;;;19.50;81.80;;;;;;10393268;28;20266;-70
2022/04/28 06:54:38;;;;;;;7.77;6.30;;;20.50;78.50;;;;;;10392223;28;20598;-70
2022/04/28 06:59:42;;;;;;;10.10;5.60;;;19.40;79.80;;;;;;10395797;28;20206;-69
2022/04/28 07:04:43;;;;;;;8.03;4.70;;;17.30;87.00;;;;;;10398236;28;20719;-70
2022/04/28 07:09:44;;;;;;;8.17;5.03;;;16.10;91.50;;;;;;10402143;28;20220;-71
2022/04/28 07:14:44;;;;;;;7.07;5.50;;;15.40;94.00;;;;;;10394051;28;20260;-69
2022/04/28 07:19:45;;;;;;;5.10;4.40;;;15.10;94.80;;;;;;10399673;28;20225;-69
2022/04/28 07:24:46;;;;;;;8.07;4.70;;;15.40;95.20;;;;;;10395648;28;20228;-69
2022/04/28 07:29:46;;;;;;;5.90;3.67;;;18.50;91.50;;;;;;10391461;28;20297;-69
2022/04/28 07:34:47;;;;;;;6.50;3.90;;;21.50;74.00;;;;;;10386790;28;20233;-69
2022/04/28 07:39:47;;;;;;;4.40;3.63;;;23.30;60.40;;;;;;10392101;28;20225;-69
2022/04/28 07:44:48;;;;;;;3.70;3.40;;;24.30;58.20;;;;;;10386639;28;20243;-69
2022/04/28 07:49:48;;;;;;;4.70;3.87;;;25.20;51.80;;;;;;10392527;28;20559;-70
2022/04/28 07:54:49;;;;;;;6.90;4.03;;;25.50;49.60;;;;;;10388016;28;20221;-69
2022/04/28 07:59:50;;;;;;;8.83;3.63;;;25.20;49.00;;;;;;10392621;28;20222;-69
2022/04/28 08:04:51;;;;;;;7.23;3.40;;;25.70;48.10;;;;;;10387428;28;20715;-69
2022/04/28 08:09:51;;;;;;;4.30;3.90;;;26.50;47.20;;;;;;10392571;28;20217;-69
2022/04/28 08:14:52;;;;;;;5.20;3.73;;;26.60;44.70;;;;;;10380342;28;20252;-69
2022/04/28 08:19:53;;;;;;;4.90;3.73;;;26.30;45.10;;;;;;10391769;28;20208;-67
2022/04/28 08:24:54;;;;;;;6.63;3.97;;;26.70;44.30;;;;;;10390670;28;20219;-68
2022/04/28 08:29:54;;;;;;;4.57;3.47;;;27.90;42.90;;;;;;10392602;28;20217;-69
2022/04/28 08:34:55;;;;;;;3.80;3.30;;;27.70;41.90;;;;;;10383129;28;20229;-70
2022/04/28 08:39:55;;;;;;;4.43;3.40;;;29.10;40.90;;;;;;10390136;28;20220;-71
2022/04/28 08:45:00;;;;;;;4.80;3.40;;;28.80;39.30;;;;;;10383892;28;20221;-70
2022/04/28 08:50:01;;;;;;;4.07;3.53;;;29.20;39.50;;;;;;10382806;28;20225;-70
2022/04/28 08:55:03;;;;;;;5.47;3.00;;;28.60;38.30;;;;;;10382553;28;20594;-69
2022/04/28 09:00:04;;;;;;;4.27;3.10;;;28.30;40.20;;;;;;10390855;28;20228;-69
2022/04/28 09:05:07;;;;;;;3.97;2.63;;;28.40;39.10;;;;;;10382316;28;20229;-70
2022/04/28 09:10:29;;;;;;;3.27;2.57;;;30.00;36.50;;;;;;10375315;28;20645;-69
2022/04/28 09:15:30;;;;;;;4.33;2.77;;;31.50;33.30;;;;;;10392150;28;20635;-70
2022/04/28 09:20:30;;;;;;;3.47;3.10;;;30.40;33.60;;;;;;10386698;28;20225;-69
2022/04/28 09:25:31;;;;;;;5.30;3.00;;;29.90;34.50;;;;;;10386880;28;20659;-69
2022/04/28 09:30:45;;;;;;;2.73;2.50;;;30.60;33.90;;;;;;10387041;28;20219;-70
2022/04/28 09:35:52;;;;;;;5.50;2.90;;;32.20;32.50;;;;;;10382063;28;20224;-70
2022/04/28 09:46:12;;;;;;;3.87;2.70;;;33.10;28.70;;;;;;10382977;28;20228;-70
2022/04/28 09:51:19;;;;;;;5.37;2.40;;;33.10;29.30;;;;;;10388127;28;20807;-69
2022/04/28 09:56:34;;;;;;;2.23;2.13;;;35.70;28.50;;;;;;10383883;28;20293;-69
2022/04/28 10:01:35;;;;;;;3.57;2.30;;;35.50;27.20;;;;;;10386440;28;20697;-70
2022/04/28 10:06:38;;;;;;;4.03;2.50;;;33.90;27.40;;;;;;10393643;28;20240;-70
2022/04/28 10:11:39;;;;;;;4.70;2.50;;;33.50;27.80;;;;;;10392461;28;20283;-70
2022/04/28 10:16:44;;;;;;;3.53;2.50;;;35.10;26.10;;;;;;10387204;28;20650;-70
2022/04/28 10:21:55;;;;;;;2.07;1.97;;;34.40;24.80;;;;;;10394619;28;20221;-69
2022/04/28 10:32:53;;;;;;;4.57;2.13;;;34.00;25.20;;;;;;10392684;28;20225;-70
2022/04/28 10:38:03;;;;;;;3.20;2.37;;;34.80;24.80;;;;;;10400130;28;20375;-69
2022/04/28 10:43:04;;;;;;;4.77;2.70;;;33.30;25.70;;;;;;10390218;28;20229;-69
2022/04/28 10:48:28;;;;;;;5.10;2.73;;;34.30;24.90;;;;;;10395978;28;20223;-70
2022/04/28 10:53:29;;;;;;;3.67;2.90;;;33.50;25.00;;;;;;10392326;28;20703;-70
2022/04/28 10:58:30;;;;;;;4.00;2.37;;;33.60;24.80;;;;;;10388784;28;20228;-71
2022/04/28 11:03:43;;;;;;;2.80;2.20;;;34.60;24.80;;;;;;10396808;28;20223;-70
2022/04/28 11:08:47;;;;;;;3.97;2.47;;;33.00;25.30;;;;;;10389235;28;20577;-69
2022/04/28 11:13:56;;;;;;;3.17;2.00;;;29.40;26.10;;;;;;10400734;28;20241;-69
2022/04/28 11:18:58;;;;;;;4.90;2.50;;;30.10;25.20;;;;;;10388579;28;20312;-70
2022/04/28 11:23:58;;;;;;;3.77;2.60;;;28.20;27.00;;;;;;10387036;28;20320;-70
2022/04/28 11:29:09;;;;;;;2.63;2.43;;;27.00;29.60;;;;;;10394368;28;20312;-69
2022/04/28 11:34:12;;;;;;;3.67;3.20;;;25.20;31.50;;;;;;10387267;28;20217;-69
2022/04/28 11:39:13;;;;;;;4.67;3.60;;;24.30;36.40;;;;;;10393291;28;20237;-69
2022/04/28 11:44:15;;;;;;;6.43;2.93;;;23.90;37.70;;;;;;10396526;28;20934;-69
2022/04/28 11:49:17;;;;;;;3.90;2.90;;;23.20;38.70;;;;;;10393124;28;20224;-69
2022/04/28 11:54:24;;;;;;;4.00;2.60;;;22.70;38.90;;;;;;10388548;28;20659;-69
2022/04/28 11:59:24;;;;;;;4.10;2.77;;;22.60;38.80;;;;;;10391269;28;20245;-68
2022/04/28 12:04:27;;;;;;;5.00;2.90;;;22.30;39.60;;;;;;10385540;28;20329;-69
2022/04/28 12:15:15;;;;;;;3.00;2.80;;;22.60;38.20;;;;;;10363991;28;20225;-70
2022/04/28 12:20:21;;;;;;;2.73;2.43;;;22.20;38.30;;;;;;10393657;28;20207;-70
2022/04/28 12:25:23;;;;;;;5.50;2.70;;;22.10;39.60;;;;;;10404362;28;20200;-69
2022/04/28 12:30:24;;;;;;;3.00;2.70;;;22.10;40.50;;;;;;10389165;28;20336;-68
2022/04/28 12:35:35;;;;;;;3.43;2.73;;;22.40;39.30;;;;;;10391593;28;20231;-69
2022/04/28 12:40:41;;;;;;;4.33;2.63;;;22.20;39.70;;;;;;10389159;28;20212;-68
2022/04/28 12:45:56;;;;;;;3.03;2.73;;;22.20;40.30;;;;;;10385730;28;20224;-68
2022/04/28 12:51:10;;;;;;;4.53;2.70;;;22.60;38.80;;;;;;10391374;28;20231;-69
2022/04/28 12:56:13;;;;;;;4.37;2.70;;;22.80;38.10;;;;;;10386233;28;20313;-69
2022/04/28 13:01:19;;;;;;;4.37;3.20;;;22.50;39.60;;;;;;10391379;28;20250;-70
2022/04/28 13:06:20;;;;;;;3.87;2.63;;;22.10;41.30;;;;;;10389434;28;20646;-70
2022/04/28 13:11:34;;;;;;;4.07;2.50;;;21.80;41.20;;;;;;10383660;28;20244;-68
2022/04/28 13:16:36;;;;;;;3.83;2.60;;;21.90;41.70;;;;;;10385312;28;20249;-68
2022/04/28 13:21:37;;;;;;;5.30;2.80;;;22.00;39.70;;;;;;10382713;28;20228;-69
2022/04/28 13:26:38;;;;;;;3.10;2.67;;;22.00;39.90;;;;;;10387389;28;20319;-69
2022/04/28 13:31:40;;;;;;;2.50;2.27;;;22.50;39.00;;;;;;10395694;28;20319;-69
2022/04/28 13:36:40;;;;;;;5.80;3.00;;;23.00;38.70;;;;;;10392006;28;20307;-69
2022/04/28 13:41:42;;;;;;;5.63;2.67;;;23.00;38.50;;;;;;10385476;28;20237;-68
2022/04/28 13:46:43;;;;;;;3.23;2.23;;;22.20;39.90;;;;;;10387658;28;20235;-69
2022/04/28 13:51:43;;;;;;;7.03;2.80;;;21.70;41.00;;;;;;10381944;28;20227;-68
2022/04/28 13:56:44;;;;;;;5.13;3.20;;;21.60;41.50;;;;;;10387706;28;20624;-69
2022/04/28 14:01:46;;;;;;;7.37;2.83;;;21.60;41.70;;;;;;10385122;28;20316;-69
2022/04/28 14:06:47;;;;;;;4.87;3.30;;;21.60;42.10;;;;;;10387207;28;20252;-69
2022/04/28 14:11:48;;;;;;;4.77;2.80;;;21.50;41.70;;;;;;10382319;28;20248;-69
2022/04/28 14:16:49;;;;;;;5.43;2.70;;;21.40;41.80;;;;;;10381009;28;20698;-69
2022/04/28 14:21:49;;;;;;;4.50;2.83;;;21.40;42.30;;;;;;10382123;28;20251;-68
2022/04/28 14:26:51;;;;;;;3.10;2.80;;;21.30;41.70;;;;;;10388648;28;20228;-69
2022/04/28 14:31:52;;;;;;;5.53;2.73;;;21.30;41.50;;;;;;10382240;28;20765;-68
2022/04/28 14:36:53;;;;;;;4.47;2.87;;;21.20;41.90;;;;;;10381127;28;20219;-68
2022/04/28 14:41:54;;;;;;;3.53;2.70;;;21.00;42.20;;;;;;10389511;28;20243;-68
2022/04/28 14:46:54;;;;;;;2.73;2.33;;;21.20;42.40;;;;;;10389367;28;20320;-68
2022/04/28 14:57:15;;;;;;;2.60;2.40;;;21.50;41.50;;;;;;10389860;28;20727;-69
2022/04/28 15:02:16;;;;;;;2.93;2.70;;;21.70;41.80;;;;;;10393087;28;20220;-69
2022/04/28 15:07:16;;;;;;;4.53;2.50;;;21.90;42.20;;;;;;10393961;28;20216;-69
2022/04/28 15:12:18;;;;;;;3.37;2.70;;;21.90;41.40;;;;;;10389700;28;20221;-69
2022/04/28 15:17:18;;;;;;;6.00;2.60;;;21.70;41.80;;;;;;10394131;28;20711;-69
2022/04/28 15:22:22;;;;;;;4.10;2.60;;;21.60;42.80;;;;;;10395078;28;20220;-68
2022/04/28 15:27:23;;;;;;;6.47;3.00;;;21.70;42.80;;;;;;10387570;28;20598;-69
2022/04/28 15:32:23;;;;;;;3.67;2.50;;;21.30;42.00;;;;;;10389790;28;20227;-69
2022/04/28 15:37:24;;;;;;;3.47;2.33;;;20.90;42.30;;;;;;10392089;28;20244;-68
2022/04/28 15:42:24;;;;;;;4.27;2.50;;;20.90;42.50;;;;;;10385913;28;20695;-68
2022/04/28 15:47:31;;;;;;;3.93;2.30;;;20.80;42.30;;;;;;10389162;28;20215;-69
2022/04/28 15:52:32;;;;;;;7.97;5.60;;;20.70;42.00;;;;;;10391254;28;20225;-69
2022/04/28 15:57:33;;;;;;;2.80;2.60;;;20.80;42.60;;;;;;10389967;28;20209;-68
2022/04/28 16:02:33;;;;;;;6.13;2.70;;;20.90;43.00;;;;;;10385855;28;20727;-68
2022/04/28 16:07:34;;;;;;;2.30;2.10;;;20.90;42.70;;;;;;10389957;28;20245;-68
2022/04/28 16:12:35;;;;;;;3.50;2.70;;;20.90;43.40;;;;;;10390152;28;20616;-68
2022/04/28 16:17:39;;;;;;;4.00;2.60;;;20.80;42.90;;;;;;10396176;28;20726;-68
2022/04/28 16:22:40;;;;;;;3.83;2.53;;;21.00;43.00;;;;;;10382199;28;20235;-69
2022/04/28 16:27:40;;;;;;;3.73;2.27;;;21.10;42.50;;;;;;10396072;28;20217;-69
2022/04/28 16:32:41;;;;;;;3.57;2.10;;;21.20;43.10;;;;;;10390184;28;20245;-69
2022/04/28 16:37:42;;;;;;;5.33;2.43;;;21.10;43.30;;;;;;10383592;28;20223;-68
2022/04/28 16:42:43;;;;;;;4.27;2.70;;;20.80;42.90;;;;;;10392954;28;20659;-68
2022/04/28 16:47:44;;;;;;;4.73;2.73;;;20.50;43.90;;;;;;10394134;28;20598;-68
2022/04/28 16:52:45;;;;;;;4.03;2.53;;;20.20;44.60;;;;;;10390043;28;20220;-69
2022/04/28 16:57:46;;;;;;;3.00;2.30;;;20.00;45.20;;;;;;10385090;28;20225;-68
2022/04/28 17:08:09;;;;;;;4.13;2.27;;;19.70;45.40;;;;;;10384237;28;20215;-68
2022/04/28 17:13:09;;;;;;;3.83;2.60;;;19.60;45.60;;;;;;10382864;28;20220;-69
2022/04/28 17:18:10;;;;;;;4.23;2.80;;;19.50;46.50;;;;;;10391853;28;20694;-69
2022/04/28 17:23:11;;;;;;;2.80;2.30;;;19.40;46.70;;;;;;10383910;28;20224;-70
2022/04/28 17:28:14;;;;;;;4.33;2.30;;;19.30;47.00;;;;;;10389461;28;20265;-67
2022/04/28 17:33:15;;;;;;;6.30;2.57;;;19.20;47.50;;;;;;10384389;28;20297;-68
2022/04/28 17:38:15;;;;;;;2.60;2.40;;;19.10;48.10;;;;;;10382361;28;20787;-69
2022/04/28 17:43:16;;;;;;;2.57;2.37;;;19.00;48.70;;;;;;10388541;28;20231;-69
2022/04/28 17:48:17;;;;;;;4.73;2.47;;;18.90;49.00;;;;;;10385088;28;20220;-69
2022/04/28 17:53:18;;;;;;;4.17;2.53;;;18.70;50.00;;;;;;10389050;28;20223;-68
2022/04/28 18:03:38;;;;;;;4.50;2.57;;;18.40;50.10;;;;;;10384935;28;20228;-69
2022/04/28 18:08:40;;;;;;;4.37;2.67;;;18.30;51.10;;;;;;10384483;28;20218;-69
2022/04/28 18:13:42;;;;;;;3.27;2.63;;;18.10;51.80;;;;;;10384833;28;20260;-69
2022/04/28 18:18:42;;;;;;;3.50;2.67;;;18.00;52.10;;;;;;10385416;28;20749;-68
2022/04/28 18:23:43;;;;;;;2.97;2.60;;;17.80;52.80;;;;;;10395800;28;20283;-69
2022/04/28 18:28:44;;;;;;;3.67;2.90;;;17.60;53.50;;;;;;10391893;28;20612;-68
2022/04/28 18:33:45;;;;;;;6.60;3.30;;;17.40;54.30;;;;;;10395196;28;20321;-68
2022/04/28 18:49:25;;;;;;;7.17;3.63;;;16.80;56.10;;;;;;10392180;28;20210;-68
2022/04/28 18:54:28;;;;;;;4.13;3.67;;;16.50;56.80;;;;;;10388593;28;20218;-68
2022/04/28 18:59:38;;;;;;;7.73;3.90;;;16.30;57.80;;;;;;10393192;28;20581;-69
2022/04/28 19:04:40;;;;;;;6.33;3.80;;;16.00;59.40;;;;;;10399792;28;20246;-68
2022/04/28 19:09:41;;;;;;;9.77;4.50;;;15.70;61.30;;;;;;10393339;28;20689;-68
2022/04/28 19:14:55;;;;;;;7.37;4.77;;;15.60;60.80;;;;;;10389635;28;20213;-68
2022/04/28 19:20:02;;;;;;;6.93;4.20;;;15.50;61.70;;;;;;10395029;28;20224;-67
2022/04/28 19:25:03;;;;;;;8.47;4.10;;;15.30;64.60;;;;;;10387806;28;20330;-68
2022/04/28 19:30:06;;;;;;;6.47;4.30;;;15.10;67.60;;;;;;10386831;28;20306;-68
2022/04/28 19:35:10;;;;;;;9.03;5.27;;;14.90;69.50;;;;;;10394582;28;20216;-68
2022/04/28 19:40:14;;;;;;;6.60;5.03;;;14.80;69.30;;;;;;10388534;28;20192;-69
2022/04/28 19:45:15;;;;;;;9.67;5.33;;;14.70;67.90;;;;;;10392872;28;20216;-69
2022/04/28 19:50:16;;;;;;;8.03;5.33;;;14.60;68.70;;;;;;10387311;28;20175;-69
2022/04/28 19:55:17;;;;;;;7.53;4.83;;;14.50;70.00;;;;;;10392289;28;20188;-69
2022/04/28 20:00:18;;;;;;;6.70;5.07;;;14.50;70.70;;;;;;10388118;28;20249;-69
2022/04/28 20:05:18;;;;;;;9.93;5.47;;;14.50;71.00;;;;;;10388725;28;20253;-69
2022/04/28 20:10:19;;;;;;;7.90;5.40;;;14.30;71.00;;;;;;10392083;28;20189;-68
2022/04/28 20:15:20;;;;;;;9.03;6.07;;;14.30;73.20;;;;;;10384968;28;20840;-69
2022/04/28 20:20:22;;;;;;;7.73;5.50;;;14.20;73.70;;;;;;10387129;28;20186;-70
2022/04/28 20:25:24;;;;;;;10.37;5.90;;;14.00;77.30;;;;;;10392250;28;20632;-69
2022/04/28 20:30:27;;;;;;;7.20;5.57;;;14.00;79.90;;;;;;10401977;28;20224;-72
2022/04/28 20:35:28;;;;;;;12.83;5.60;;;13.80;82.00;;;;;;10402723;28;20625;-70
2022/04/28 20:40:32;;;;;;;6.60;5.53;;;13.70;82.50;;;;;;10390395;28;20232;-69
2022/04/28 20:45:34;;;;;;;5.83;4.80;;;13.60;84.00;;;;;;10385046;28;20343;-69
2022/04/28 20:50:36;;;;;;;7.17;4.40;;;13.50;81.00;;;;;;10388627;28;20220;-69
2022/04/28 20:55:39;;;;;;;6.07;5.10;;;13.50;81.20;;;;;;10387286;28;20224;-69
2022/04/28 21:00:40;;;;;;;10.37;6.10;;;13.50;83.70;;;;;;10387192;28;20218;-69
2022/04/28 21:05:41;;;;;;;7.03;6.10;;;13.50;87.60;;;;;;10394420;28;20224;-69
2022/04/28 21:10:42;;;;;;;9.43;5.43;;;13.40;90.70;;;;;;10389320;28;20232;-69
2022/04/28 21:15:42;;;;;;;6.33;4.50;;;13.40;90.00;;;;;;10391994;28;20228;-69
2022/04/28 21:20:46;;;;;;;4.50;3.40;;;13.40;89.70;;;;;;10389630;28;20214;-68
2022/04/28 21:25:49;;;;;;;6.40;3.83;;;13.30;86.60;;;;;;10394624;28;20251;-69
2022/04/28 21:30:49;;;;;;;5.30;3.27;;;13.40;84.50;;;;;;10392757;28;20227;-70
2022/04/28 21:35:50;;;;;;;3.70;2.90;;;13.60;82.80;;;;;;10386481;28;20235;-70
2022/04/28 21:40:52;;;;;;;5.80;3.50;;;13.70;83.20;;;;;;10392451;28;20221;-69
2022/04/28 21:45:56;;;;;;;5.50;4.57;;;13.60;86.40;;;;;;10389547;28;20703;-69
2022/04/28 21:50:56;;;;;;;9.20;5.80;;;13.40;91.50;;;;;;10391565;28;20213;-68
2022/04/28 21:55:57;;;;;;;7.93;4.90;;;13.20;95.20;;;;;;10383624;28;20228;-69
2022/04/28 22:00:58;;;;;;;6.43;4.90;;;13.10;97.20;;;;;;10389844;28;20227;-69
2022/04/28 22:11:17;;;;;;;5.87;4.20;;;12.50;99.90;;;;;;10384788;28;20221;-70
2022/04/28 22:16:18;;;;;;;6.73;4.97;;;12.30;99.90;;;;;;10387544;28;20221;-68
2022/04/28 22:21:19;;;;;;;5.20;4.63;;;12.20;99.90;;;;;;10384550;28;20220;-69
2022/04/28 22:26:24;;;;;;;6.57;4.57;;;12.10;99.90;;;;;;10388706;28;20234;-69
2022/04/28 22:31:25;;;;;;;5.60;4.43;;;12.00;99.90;;;;;;10388047;28;20234;-69
2022/04/28 22:36:27;;;;;;;6.10;5.30;;;11.90;99.90;;;;;;10396931;28;20322;-70
2022/04/28 22:41:28;;;;;;;7.57;5.10;;;11.80;99.90;;;;;;10387164;28;20221;-68
2022/04/28 22:46:30;;;;;;;6.77;5.10;;;11.70;99.90;;;;;;10388257;28;20239;-69
2022/04/28 22:51:30;;;;;;;6.00;4.83;;;11.60;99.90;;;;;;10386493;28;20692;-69
2022/04/28 22:56:31;;;;;;;9.07;5.00;;;11.60;99.90;;;;;;10381505;28;20275;-69
2022/04/28 23:01:31;;;;;;;7.03;5.27;;;11.50;99.90;;;;;;10380146;28;20718;-70
2022/04/28 23:06:32;;;;;;;7.30;4.90;;;11.50;99.90;;;;;;10389529;28;20651;-70
2022/04/28 23:11:36;;;;;;;7.13;5.50;;;11.40;99.90;;;;;;10397199;28;20251;-69
2022/04/28 23:16:37;;;;;;;6.37;5.30;;;11.40;99.90;;;;;;10395447;28;20209;-70
2022/04/28 23:21:38;;;;;;;5.90;4.77;;;11.50;99.90;;;;;;10404284;28;20628;-69
2022/04/28 23:26:38;;;;;;;6.97;5.20;;;11.50;99.90;;;;;;10398117;28;20257;-71
2022/04/28 23:31:39;;;;;;;7.47;5.33;;;11.60;99.90;;;;;;10393044;28;20299;-69
2022/04/28 23:47:18;;;;;;;8.90;5.80;;;11.60;99.90;;;;;;10398590;28;20256;-69
2022/04/28 23:52:20;;;;;;;15.63;7.40;;;11.70;99.90;;;;;;10387500;28;20252;-69
2022/04/28 23:57:24;;;;;;;13.17;5.30;;;11.70;99.90;;;;;;10387335;28;20220;-69
